Morgantown, WV

1:25 AM EST on February 07, 2016 (GMT -0500)
WVU Evansdale NRCCE | | Change Station
CLOSE
Current Station
Personal Weather Station
Location: Morgantown, WV
Elevation: 1115 ft
Nearby Weather Stations

Elev 1115 ft 39.65 °N, 79.97 °W | Updated 7 seconds ago

Clear
Clear
29.3 °F
Feels Like 29 °F
N
1.1
Wind Variable Wind from SE
Gusts 3.1 mph

Today
High -- | Low -- °F
--% Chance of Precip.
Yesterday
High -- | Low -- °F
Precip. -- in
Pressure 30.24 in
Visibility 10.0 miles
Clouds Clear
Windchill 29 °F
Dew Point 20 °F
Humidity 68%
Rainfall 0.00 in
Snow Depth Not available.
7:22 AM 5:46 PM
Waning Crescent, 2% visible
METAR KMGW 070553Z AUTO 00000KT 10SM CLR M02/M09 A3020 RMK AO2 SLP238 T10171089 10050 21033 56011 TSNO
Pressure 30.24 in
Visibility 10.0 miles
Clouds Clear
Windchill 29 °F
Dew Point 20 °F
Humidity 68%
Rainfall 0.00 in
Snow Depth Not available.
7:22 AM 5:46 PM
Waning Crescent, 2% visible
METAR KMGW 070553Z AUTO 00000KT 10SM CLR M02/M09 A3020 RMK AO2 SLP238 T10171089 10050 21033 56011 TSNO

10-Day Weather Forecast

Almanac

Astronomy

Feb. 07, 2016 Rise Set
Actual Time
Civil Twilight
Nautical Twilight
Astronomical Twilight
Moon
Length of Visible Light
Length of Day
Tomorrow will be .
, % of the Moon is Illuminated

Today's Extremes

State Highs State Lows

Community

WunderPhotos

Upload Photos

1,891,175 photos uploaded!

WunderBlog® & News

Nearby

Air Quality

  Air Quality AQ Index Pollutant
Not available.

Snow Depth

Station Depth Elevation

Earthquake Activity

City Distance Mag. Time & Date
Minimum magnitude displayed is 2.5.

Coastal Water Temperatures

Place Temperature

Stations

Nearby Weather Stations

Station Location Temp. Windchill Dew Point Humidity Wind Precip. Elev Updated Type
                   

Watches & Warnings

There are currently no watches in effect.